Harry B. Settoon — WDE5658 — position and weather

sailwx.info

Track history (hours):
 
Tides and Currents Weather Stations Pressure Air Temp Water Temp Dewpoint Dewpoint Depression Visibility Wind Speed Wind Dir Waves Ship Positions

Harry B. Settoon

Owner: Settoon Towing, LLC, Houma, LA. More information available from US FCC via Universal Licensing System and Coast Guard Vessel Documentation Center.

Last reported at 2016-Aug-24 18:29 UTC. Time now 2016-Aug-29 21:39 UTC.
Position N 29°50' W 091°57'.

; draft 1.8 m.

Type: Tug. MMSI: 367369920.

Date/timePositionNaut miles runAvg speedWind from/ knotsBaromVisibWave heightAir tempDewpointWater temp
2016-Aug-24 18:29N 29°50' W 091°57'2 2.5
2016-Aug-24 17:32N 29°50' W 091°59'0 0.0
2016-Aug-24 16:30N 29°50' W 091°59'0 0.0
2016-Aug-24 15:32N 29°50' W 091°59'0 0.0
2016-Aug-24 14:32N 29°50' W 091°59'0 0.0
2016-Aug-24 13:32N 29°50' W 091°59'0 0.0
2016-Aug-24 12:32N 29°50' W 091°59'0 0.0
2016-Aug-24 11:33N 29°50' W 091°59'0 0.0
2016-Aug-24 10:33N 29°50' W 091°59'0 0.0
2016-Aug-24 09:33N 29°50' W 091°59'0 0.0
2016-Aug-24 08:32N 29°50' W 091°59'0 0.0
2016-Aug-24 07:32N 29°50' W 091°59'0 0.0
2016-Aug-24 06:32N 29°50' W 091°59'0 0.0
2016-Aug-24 04:30N 29°50' W 091°59'2 1.6
2016-Aug-24 03:28N 29°50' W 091°58'55 2.1
2016-Aug-23 01:22N 29°38' W 090°56'3 1.0
2016-Aug-22 22:33N 29°36' W 090°58'6 5.8
2016-Aug-22 21:33N 29°32' W 090°53'5 5.5
2016-Aug-22 20:33N 29°32' W 090°47'4 4.0
2016-Aug-22 19:33N 29°35' W 090°43'0 0.1
2016-Aug-22 18:33N 29°35' W 090°43'3 3.1
2016-Aug-22 17:33N 29°36' W 090°40'6 5.4
2016-Aug-22 16:24N 29°34' W 090°33'  
2016-Aug-19 12:23N 29°33' W 090°27'5 5.9
2016-Aug-19 11:33N 29°34' W 090°32'6 5.6
2016-Aug-19 10:33N 29°35' W 090°39'4 3.6
2016-Aug-19 09:33N 29°36' W 090°43'5 4.5
2016-Aug-19 08:33N 29°32' W 090°46'  
2016-Aug-16 04:33N 29°32' W 090°49'5 4.6
2016-Aug-16 03:33N 29°34' W 090°44'1 1.1
2016-Aug-16 02:33N 29°35' W 090°43'0 0.4
2016-Aug-16 01:33N 29°34' W 090°43'5 5.1
2016-Aug-16 00:33N 29°29' W 090°43'  
Track history (hours):
 
Tides and Currents Weather Stations Pressure Air Temp Water Temp Dewpoint Dewpoint Depression Visibility Wind Speed Wind Dir Waves Ship Positions

Harry B. Settoon

Owner: Settoon Towing, LLC, Houma, LA. More information available from US FCC via Universal Licensing System and Coast Guard Vessel Documentation Center.

Last reported at 2016-Aug-24 18:29 UTC. Time now 2016-Aug-29 21:39 UTC.
Position N 29°50' W 091°57'.

; draft 1.8 m.

Type: Tug. MMSI: 367369920.

Date/timePositionNaut miles runAvg speedWind from/ knotsBaromVisibWave heightAir tempDewpointWater temp
2016-Aug-24 18:29N 29°50' W 091°57'2 2.5
2016-Aug-24 17:32N 29°50' W 091°59'0 0.0
2016-Aug-24 16:30N 29°50' W 091°59'0 0.0
2016-Aug-24 15:32N 29°50' W 091°59'0 0.0
2016-Aug-24 14:32N 29°50' W 091°59'0 0.0
2016-Aug-24 13:32N 29°50' W 091°59'0 0.0
2016-Aug-24 12:32N 29°50' W 091°59'0 0.0
2016-Aug-24 11:33N 29°50' W 091°59'0 0.0
2016-Aug-24 10:33N 29°50' W 091°59'0 0.0
2016-Aug-24 09:33N 29°50' W 091°59'0 0.0
2016-Aug-24 08:32N 29°50' W 091°59'0 0.0
2016-Aug-24 07:32N 29°50' W 091°59'0 0.0
2016-Aug-24 06:32N 29°50' W 091°59'0 0.0
2016-Aug-24 04:30N 29°50' W 091°59'2 1.6
2016-Aug-24 03:28N 29°50' W 091°58'55 2.1
2016-Aug-23 01:22N 29°38' W 090°56'3 1.0
2016-Aug-22 22:33N 29°36' W 090°58'6 5.8
2016-Aug-22 21:33N 29°32' W 090°53'5 5.5
2016-Aug-22 20:33N 29°32' W 090°47'4 4.0
2016-Aug-22 19:33N 29°35' W 090°43'0 0.1
2016-Aug-22 18:33N 29°35' W 090°43'3 3.1
2016-Aug-22 17:33N 29°36' W 090°40'6 5.4
2016-Aug-22 16:24N 29°34' W 090°33'  
2016-Aug-19 12:23N 29°33' W 090°27'5 5.9
2016-Aug-19 11:33N 29°34' W 090°32'6 5.6
2016-Aug-19 10:33N 29°35' W 090°39'4 3.6
2016-Aug-19 09:33N 29°36' W 090°43'5 4.5
2016-Aug-19 08:33N 29°32' W 090°46'  
2016-Aug-16 04:33N 29°32' W 090°49'5 4.6
2016-Aug-16 03:33N 29°34' W 090°44'1 1.1
2016-Aug-16 02:33N 29°35' W 090°43'0 0.4
2016-Aug-16 01:33N 29°34' W 090°43'5 5.1
2016-Aug-16 00:33N 29°29' W 090°43'  

Dump ship's entire track history